createdAt,value
2022-12-24T00:01:21.238Z,80.40
2022-12-24T00:03:52.187Z,54.78
2022-12-24T00:06:21.875Z,60.58
2022-12-24T00:08:49.192Z,51.80
2022-12-24T00:11:16.361Z,55.90
2022-12-24T00:13:43.883Z,56.67
2022-12-24T00:16:11.793Z,50.28
2022-12-24T00:18:45.554Z,50.75
2022-12-24T00:21:13.694Z,52.63
2022-12-24T00:23:41.601Z,59.83
2022-12-24T00:26:08.782Z,51.67
2022-12-24T00:28:36.123Z,49.88
2022-12-24T00:31:11.636Z,46.35
2022-12-24T00:33:39.301Z,48.50
2022-12-24T00:36:07.054Z,68.68
2022-12-24T00:38:34.635Z,83.30
2022-12-24T00:41:03.673Z,72.57
2022-12-24T00:43:31.709Z,87.45
2022-12-24T00:45:59.741Z,91.72
2022-12-24T00:48:27.047Z,91.93
2022-12-24T00:50:54.187Z,86.32
2022-12-24T00:53:21.568Z,78.05
2022-12-24T00:55:48.541Z,73.03
2022-12-24T00:58:16.066Z,108.68
2022-12-24T01:00:43.062Z,108.45
2022-12-24T01:03:10.426Z,93.30
2022-12-24T01:05:37.496Z,59.38
2022-12-24T01:08:04.990Z,53.85
2022-12-24T01:10:31.958Z,80.72
2022-12-24T01:13:02.789Z,65.68
2022-12-24T01:15:29.907Z,69.10
2022-12-24T01:17:58.440Z,89.07
2022-12-24T01:20:27.109Z,51.38
2022-12-24T01:22:54.622Z,55.17
2022-12-24T01:25:21.560Z,53.83
2022-12-24T01:27:48.836Z,70.20
2022-12-24T01:30:15.979Z,86.00
2022-12-24T01:32:43.314Z,62.60
2022-12-24T01:35:10.836Z,61.00
2022-12-24T01:37:39.062Z,58.95
2022-12-24T01:40:33.138Z,61.13
2022-12-24T01:43:19.143Z,60.47
2022-12-24T01:45:53.727Z,65.65
2022-12-24T01:48:41.163Z,59.15
2022-12-24T01:51:12.914Z,60.95
2022-12-24T01:53:43.822Z,63.33
2022-12-24T01:56:13.229Z,69.30
2022-12-24T01:58:45.489Z,59.22
2022-12-24T02:01:12.767Z,68.82
2022-12-24T02:03:40.892Z,70.40
2022-12-24T02:06:09.642Z,63.53
2022-12-24T02:08:40.257Z,69.65
2022-12-24T02:11:20.080Z,76.28
2022-12-24T02:13:52.697Z,86.88
2022-12-24T02:16:42.333Z,95.00
2022-12-24T02:19:43.787Z,81.03
2022-12-24T02:22:32.082Z,74.32
2022-12-24T02:25:23.664Z,73.70
2022-12-24T02:27:50.579Z,61.17
2022-12-24T02:30:24.427Z,61.92
2022-12-24T02:33:05.012Z,60.13
2022-12-24T02:35:51.145Z,62.70
2022-12-24T02:38:22.592Z,60.17
2022-12-24T02:40:54.973Z,67.82
2022-12-24T02:43:29.481Z,57.35
2022-12-24T02:46:01.819Z,62.15
2022-12-24T02:48:30.676Z,74.25
2022-12-24T02:51:02.319Z,85.20
2022-12-24T02:53:29.686Z,74.65
2022-12-24T02:56:07.927Z,75.50
2022-12-24T02:59:00.296Z,61.80
2022-12-24T03:01:46.358Z,58.15
2022-12-24T03:04:40.534Z,64.25
2022-12-24T03:07:18.842Z,51.70
2022-12-24T03:09:54.846Z,56.63
2022-12-24T03:12:38.960Z,55.38
2022-12-24T03:15:09.205Z,55.60
2022-12-24T03:17:39.432Z,51.60
2022-12-24T03:20:10.156Z,46.90
2022-12-24T03:22:38.716Z,63.70
2022-12-24T03:25:06.066Z,53.88
2022-12-24T03:27:35.438Z,59.80
2022-12-24T03:30:04.464Z,59.40
2022-12-24T03:32:33.121Z,49.28
2022-12-24T03:35:00.333Z,67.57
2022-12-24T03:37:27.906Z,64.53
2022-12-24T03:39:54.897Z,64.32
2022-12-24T03:42:22.158Z,54.55
2022-12-24T03:44:49.147Z,54.17
2022-12-24T03:47:16.682Z,45.90
2022-12-24T03:49:43.816Z,51.72
2022-12-24T03:52:11.404Z,55.47
2022-12-24T03:54:38.371Z,53.10
2022-12-24T03:57:05.641Z,52.42
2022-12-24T03:59:32.619Z,43.05
2022-12-24T04:02:00.299Z,38.35
2022-12-24T04:04:27.593Z,44.60
2022-12-24T04:06:54.846Z,36.13
2022-12-24T04:09:21.847Z,32.35
2022-12-24T04:11:49.107Z,28.90
2022-12-24T04:14:16.148Z,32.65
2022-12-24T04:16:43.442Z,33.65
2022-12-24T04:19:10.479Z,32.05
2022-12-24T04:21:37.722Z,30.17
2022-12-24T04:24:05.124Z,27.13
2022-12-24T04:26:32.348Z,28.90
2022-12-24T04:28:59.332Z,23.08
2022-12-24T04:31:26.610Z,22.67
2022-12-24T04:33:53.669Z,27.25
2022-12-24T04:36:21.370Z,23.80
2022-12-24T04:38:48.743Z,33.53
2022-12-24T04:41:23.649Z,25.50
2022-12-24T04:43:52.966Z,29.58
2022-12-24T04:46:26.304Z,23.08
2022-12-24T04:51:23.188Z,27.17
2022-12-24T04:53:50.188Z,24.55
2022-12-24T04:56:25.844Z,28.40
2022-12-24T04:58:53.311Z,24.48
2022-12-24T05:01:26.357Z,27.63
2022-12-24T05:03:54.319Z,23.67
2022-12-24T05:06:27.653Z,33.58
2022-12-24T05:08:57.127Z,25.13
2022-12-24T05:11:24.689Z,32.05
2022-12-24T05:13:52.017Z,26.67
2022-12-24T05:16:21.707Z,30.33
2022-12-24T05:18:49.324Z,25.25
2022-12-24T05:21:19.305Z,35.17
2022-12-24T05:24:04.805Z,32.60
2022-12-24T05:26:41.544Z,32.17
2022-12-24T05:29:09.707Z,42.13
2022-12-24T05:31:37.393Z,29.40
2022-12-24T05:34:04.403Z,36.20
2022-12-24T05:36:31.907Z,32.75
2022-12-24T05:38:59.208Z,26.88
2022-12-24T05:41:26.537Z,23.95
2022-12-24T05:43:53.684Z,33.38
2022-12-24T05:46:22.465Z,31.90
2022-12-24T05:48:50.409Z,30.00
2022-12-24T05:51:20.018Z,42.63
2022-12-24T05:53:47.801Z,32.33
2022-12-24T05:56:19.232Z,36.72
2022-12-24T05:58:46.350Z,34.75
2022-12-24T06:01:14.683Z,40.53
2022-12-24T06:03:41.867Z,36.22
2022-12-24T06:06:14.875Z,43.60
2022-12-24T06:08:42.708Z,36.47
2022-12-24T06:11:13.072Z,42.95
2022-12-24T06:13:41.225Z,39.35
2022-12-24T06:16:11.953Z,34.63
2022-12-24T06:18:39.068Z,42.17
2022-12-24T06:21:07.000Z,38.47
2022-12-24T06:23:35.893Z,45.85
2022-12-24T06:26:04.651Z,42.67
2022-12-24T06:28:34.739Z,46.20
2022-12-24T06:31:03.697Z,43.42
2022-12-24T06:33:33.108Z,44.22
2022-12-24T06:36:00.660Z,46.70
2022-12-24T06:38:29.704Z,47.67
2022-12-24T06:40:57.013Z,56.65
2022-12-24T06:43:23.990Z,52.15
2022-12-24T06:45:51.563Z,59.22
2022-12-24T06:48:18.576Z,56.75
2022-12-24T06:50:45.896Z,58.47
2022-12-24T06:53:12.999Z,45.90
2022-12-24T06:55:40.628Z,45.88
2022-12-24T06:58:07.661Z,54.67
2022-12-24T07:00:34.949Z,46.13
2022-12-24T07:03:02.005Z,44.78
2022-12-24T07:05:30.197Z,36.10
2022-12-24T07:07:57.678Z,38.80
2022-12-24T07:10:25.630Z,36.95
2022-12-24T07:12:52.583Z,42.70
2022-12-24T07:15:19.971Z,45.20
2022-12-24T07:17:46.989Z,49.38
2022-12-24T07:20:15.342Z,38.13
2022-12-24T07:22:42.935Z,42.58
2022-12-24T07:25:10.985Z,41.85
2022-12-24T07:27:38.518Z,37.28
2022-12-24T07:30:06.907Z,39.47
2022-12-24T07:32:34.144Z,43.85
2022-12-24T07:35:01.774Z,47.70
2022-12-24T07:37:28.736Z,45.15
2022-12-24T07:39:56.066Z,43.45
2022-12-24T07:42:23.384Z,45.45
2022-12-24T07:44:51.089Z,50.25
2022-12-24T07:47:18.077Z,59.50
2022-12-24T07:49:45.609Z,56.83
2022-12-24T07:52:12.763Z,56.83
2022-12-24T07:54:40.114Z,57.13
2022-12-24T07:57:07.021Z,54.45
2022-12-24T07:59:34.403Z,65.50
2022-12-24T08:02:01.587Z,54.03
2022-12-24T08:04:32.615Z,63.15
2022-12-24T08:06:59.636Z,78.50
2022-12-24T08:09:27.156Z,62.85
2022-12-24T08:11:54.132Z,56.10
2022-12-24T08:14:21.483Z,57.45
2022-12-24T08:16:48.586Z,60.30
2022-12-24T08:19:16.714Z,58.65
2022-12-24T08:21:43.661Z,60.42
2022-12-24T08:24:11.183Z,62.08
2022-12-24T08:26:38.133Z,59.45
2022-12-24T08:29:05.996Z,54.65
2022-12-24T08:31:36.959Z,51.17
2022-12-24T08:34:05.984Z,64.15
2022-12-24T08:36:34.175Z,52.83
2022-12-24T08:39:03.711Z,58.28
2022-12-24T08:41:32.646Z,63.92
2022-12-24T08:43:59.886Z,60.85
2022-12-24T08:46:27.371Z,56.58
2022-12-24T08:48:54.726Z,56.83
2022-12-24T08:51:21.840Z,54.17
2022-12-24T08:53:49.425Z,64.53
2022-12-24T08:56:16.703Z,63.13
2022-12-24T08:58:44.273Z,66.35
2022-12-24T09:01:17.570Z,67.53
2022-12-24T09:03:45.966Z,71.95
2022-12-24T09:06:15.046Z,81.03
2022-12-24T09:08:42.545Z,84.60
2022-12-24T09:11:15.614Z,70.68
2022-12-24T09:13:44.649Z,64.13
2022-12-24T09:16:11.940Z,65.07
2022-12-24T09:18:40.407Z,78.10
2022-12-24T09:21:11.421Z,65.50
2022-12-24T09:23:42.041Z,64.90
2022-12-24T09:26:19.335Z,69.72
2022-12-24T09:28:47.059Z,65.07
2022-12-24T09:31:15.178Z,73.22
2022-12-24T09:33:43.915Z,64.97
2022-12-24T09:36:11.098Z,85.15
2022-12-24T09:38:40.301Z,69.95
2022-12-24T09:41:31.394Z,78.95
2022-12-24T09:44:19.640Z,75.22
2022-12-24T09:46:49.618Z,68.22
2022-12-24T09:49:25.027Z,73.97
2022-12-24T09:52:00.181Z,71.80
2022-12-24T09:54:32.355Z,70.70
2022-12-24T09:57:05.197Z,55.38
2022-12-24T09:59:44.406Z,65.25
2022-12-24T10:02:18.452Z,63.53
2022-12-24T10:04:48.639Z,78.07
2022-12-24T10:07:31.469Z,57.42
2022-12-24T10:10:04.653Z,73.57
2022-12-24T10:13:04.560Z,77.85
2022-12-24T10:15:58.647Z,71.45
2022-12-24T10:19:02.791Z,70.25
2022-12-24T10:21:59.652Z,65.45
2022-12-24T10:24:53.521Z,82.30
2022-12-24T10:27:28.322Z,68.22
2022-12-24T10:30:02.339Z,78.40
2022-12-24T10:32:32.806Z,80.00
2022-12-24T10:35:21.792Z,65.43
2022-12-24T10:37:51.392Z,76.97
2022-12-24T10:40:28.470Z,83.72
2022-12-24T10:42:55.889Z,74.65
2022-12-24T10:45:26.090Z,74.93
2022-12-24T10:47:58.769Z,68.97
2022-12-24T10:50:35.508Z,83.97
2022-12-24T10:53:33.685Z,79.55
2022-12-24T10:56:06.613Z,65.30
2022-12-24T10:58:34.667Z,74.07
2022-12-24T11:01:02.132Z,69.93
2022-12-24T11:03:32.867Z,76.63
2022-12-24T11:06:22.714Z,58.42
2022-12-24T11:08:50.115Z,63.80
2022-12-24T11:11:20.389Z,76.53
2022-12-24T11:13:50.680Z,64.63
2022-12-24T11:16:30.478Z,73.82
2022-12-24T11:19:05.016Z,61.00
2022-12-24T11:21:35.183Z,63.28
2022-12-24T11:24:17.503Z,61.75
2022-12-24T11:26:45.196Z,58.30
2022-12-24T11:29:17.781Z,56.92
2022-12-24T11:31:45.875Z,55.85
2022-12-24T11:34:25.171Z,51.88
2022-12-24T11:36:54.272Z,59.90
2022-12-24T11:39:25.933Z,63.08
2022-12-24T11:41:54.308Z,63.35
2022-12-24T11:44:28.383Z,50.55
2022-12-24T11:46:59.355Z,46.53
2022-12-24T11:49:29.742Z,52.22
2022-12-24T11:52:17.729Z,54.97
2022-12-24T11:55:16.260Z,50.10
2022-12-24T11:58:02.635Z,60.97
2022-12-24T12:00:30.125Z,56.47
2022-12-24T12:03:02.006Z,52.42
2022-12-24T12:05:32.916Z,48.78
2022-12-24T12:08:15.431Z,55.80
2022-12-24T12:10:44.185Z,45.17
2022-12-24T12:13:19.401Z,42.63
2022-12-24T12:16:18.521Z,48.90
2022-12-24T12:19:03.483Z,48.72
2022-12-24T12:21:40.194Z,39.50
2022-12-24T12:24:20.047Z,41.75
2022-12-24T12:26:49.154Z,34.28
2022-12-24T12:29:34.668Z,39.92
2022-12-24T12:32:11.101Z,39.28
2022-12-24T12:34:49.699Z,38.30
2022-12-24T12:37:36.961Z,37.00
2022-12-24T12:40:12.058Z,41.85
2022-12-24T12:42:40.329Z,35.88
2022-12-24T12:45:53.000Z,42.55
2022-12-24T12:49:02.549Z,29.60
2022-12-24T12:51:52.588Z,33.72
2022-12-24T12:54:41.593Z,41.47
2022-12-24T12:57:13.643Z,41.38
2022-12-24T12:59:50.765Z,35.00
2022-12-24T13:02:41.804Z,36.35
2022-12-24T13:05:46.760Z,31.70
2022-12-24T13:08:41.465Z,37.08
2022-12-24T13:11:20.854Z,37.10
2022-12-24T13:14:06.435Z,28.92
2022-12-24T13:16:45.745Z,41.22
2022-12-24T13:19:39.411Z,36.40
2022-12-24T13:22:18.893Z,37.67
2022-12-24T13:24:55.447Z,35.47
2022-12-24T13:27:31.490Z,34.25
2022-12-24T13:30:05.163Z,32.33
2022-12-24T13:32:51.545Z,33.28
2022-12-24T13:35:21.347Z,35.95
2022-12-24T13:37:49.658Z,36.08
2022-12-24T13:40:23.683Z,35.03
2022-12-24T13:42:58.184Z,30.52
2022-12-24T13:45:31.681Z,30.60
2022-12-24T13:48:11.407Z,33.40
2022-12-24T13:50:49.513Z,26.70
2022-12-24T13:53:26.565Z,27.02
2022-12-24T13:55:55.359Z,27.05
2022-12-24T13:58:25.243Z,26.30
2022-12-24T14:00:56.559Z,30.92
2022-12-24T14:03:44.572Z,28.08
2022-12-24T14:06:23.266Z,22.35
2022-12-24T14:08:54.900Z,29.67
2022-12-24T14:11:24.266Z,28.90
2022-12-24T14:13:53.216Z,31.77
2022-12-24T14:16:29.929Z,32.15
2022-12-24T14:19:15.703Z,41.72
2022-12-24T14:21:51.539Z,37.47
2022-12-24T14:24:42.987Z,46.03
2022-12-24T14:27:25.499Z,34.05
2022-12-24T14:30:16.053Z,41.70
2022-12-24T14:32:43.053Z,40.38
2022-12-24T14:35:27.431Z,47.58
2022-12-24T14:38:06.343Z,38.90
2022-12-24T14:41:00.122Z,37.75
2022-12-24T14:43:33.408Z,39.92
2022-12-24T14:46:22.328Z,44.25
2022-12-24T14:49:21.464Z,44.50
2022-12-24T14:52:45.857Z,42.53
2022-12-24T14:55:42.658Z,43.05
2022-12-24T14:58:27.257Z,41.75
2022-12-24T15:00:57.537Z,45.38
2022-12-24T15:03:27.857Z,38.70
2022-12-24T15:05:59.350Z,38.10
2022-12-24T15:08:40.590Z,40.40
2022-12-24T15:11:10.389Z,37.03
2022-12-24T15:13:39.113Z,50.15
2022-12-24T15:16:10.967Z,46.75
2022-12-24T15:18:55.182Z,42.17
2022-12-24T15:21:31.048Z,39.65
2022-12-24T15:23:58.619Z,36.40
2022-12-24T15:26:30.991Z,38.70
2022-12-24T15:29:03.592Z,39.67
2022-12-24T15:31:31.836Z,44.13
2022-12-24T15:34:00.410Z,37.28
2022-12-24T15:36:29.362Z,36.40
2022-12-24T15:38:58.851Z,39.72
2022-12-24T15:41:31.313Z,37.03
2022-12-24T15:44:04.216Z,38.45
2022-12-24T15:46:32.429Z,34.40
2022-12-24T15:49:02.101Z,42.38
2022-12-24T15:51:37.840Z,40.17
2022-12-24T15:54:20.561Z,42.53
2022-12-24T15:56:48.408Z,33.95
2022-12-24T15:59:16.045Z,37.55
2022-12-24T16:01:44.069Z,30.90
2022-12-24T16:04:21.310Z,37.88
2022-12-24T16:06:53.471Z,33.50
2022-12-24T16:09:30.629Z,35.58
2022-12-24T16:12:02.836Z,31.15
2022-12-24T16:16:58.764Z,35.95
2022-12-24T16:19:39.409Z,36.28
2022-12-24T16:22:26.233Z,32.70
2022-12-24T16:24:55.654Z,33.28
2022-12-24T16:27:22.902Z,26.67
2022-12-24T16:29:50.788Z,32.25
2022-12-24T16:32:32.314Z,33.88
2022-12-24T16:35:01.441Z,30.75
2022-12-24T16:37:28.802Z,31.00
2022-12-24T16:39:57.045Z,30.52
2022-12-24T16:42:42.457Z,35.08
2022-12-24T16:45:10.571Z,30.65
2022-12-24T16:47:42.830Z,36.90
2022-12-24T16:50:16.215Z,31.15
2022-12-24T16:52:43.477Z,35.07
2022-12-24T16:55:13.754Z,35.95
2022-12-24T16:57:41.972Z,31.42
2022-12-24T17:00:20.569Z,39.80
2022-12-24T17:02:49.501Z,37.97
2022-12-24T17:05:18.141Z,31.80
2022-12-24T17:07:45.135Z,29.67
2022-12-24T17:10:14.462Z,38.85
2022-12-24T17:12:42.141Z,34.88
2022-12-24T17:15:09.984Z,35.65
2022-12-24T17:17:37.062Z,36.50
2022-12-24T17:20:05.282Z,38.10
2022-12-24T17:22:32.297Z,41.05
2022-12-24T17:24:59.860Z,39.70
2022-12-24T17:27:26.965Z,39.38
2022-12-24T17:29:54.672Z,35.53
2022-12-24T17:32:21.692Z,44.50
2022-12-24T17:34:48.944Z,42.58
2022-12-24T17:37:15.946Z,39.30
2022-12-24T17:39:43.523Z,41.75
2022-12-24T17:42:10.450Z,40.55
2022-12-24T17:44:38.074Z,44.20
2022-12-24T17:47:05.395Z,45.78
2022-12-24T17:49:32.852Z,46.20
2022-12-24T17:52:00.012Z,40.67
2022-12-24T17:54:27.725Z,50.05
2022-12-24T17:56:54.748Z,45.17
2022-12-24T17:59:22.315Z,39.60
2022-12-24T18:01:49.497Z,39.92
2022-12-24T18:04:17.202Z,42.28
2022-12-24T18:06:48.993Z,39.97
2022-12-24T18:09:16.974Z,47.05
2022-12-24T18:11:44.165Z,44.35
2022-12-24T18:14:14.202Z,45.45
2022-12-24T18:16:42.146Z,47.10
2022-12-24T18:19:12.235Z,55.20
2022-12-24T18:21:39.789Z,60.97
2022-12-24T18:24:07.665Z,60.95
2022-12-24T18:26:34.682Z,53.75
2022-12-24T18:29:04.766Z,44.72
2022-12-24T18:31:33.910Z,50.97
2022-12-24T18:34:04.441Z,47.10
2022-12-24T18:36:31.622Z,44.25
2022-12-24T18:38:59.642Z,48.38
2022-12-24T18:41:28.793Z,43.75
2022-12-24T18:43:57.449Z,51.55
2022-12-24T18:46:26.863Z,41.05
2022-12-24T18:48:55.893Z,43.95
2022-12-24T18:51:24.547Z,41.25
2022-12-24T18:53:52.257Z,33.08
2022-12-24T18:56:21.468Z,40.17
2022-12-24T18:58:51.750Z,41.03
2022-12-24T19:01:21.755Z,40.00
2022-12-24T19:03:50.008Z,38.08
2022-12-24T19:06:18.739Z,37.72
2022-12-24T19:08:56.886Z,40.10
2022-12-24T19:11:25.912Z,35.05
2022-12-24T19:13:53.538Z,36.72
2022-12-24T19:16:21.689Z,33.20
2022-12-24T19:18:49.733Z,35.38
2022-12-24T19:21:18.466Z,28.50
2022-12-24T19:23:46.998Z,41.75
2022-12-24T19:26:16.008Z,33.33
2022-12-24T19:28:43.994Z,31.75
2022-12-24T19:31:15.257Z,70.28
2022-12-24T19:33:45.043Z,58.72
2022-12-24T19:36:16.100Z,41.80
2022-12-24T19:38:44.170Z,47.70
2022-12-24T19:41:16.457Z,41.45
2022-12-24T19:43:47.230Z,164.18
2022-12-24T19:46:17.448Z,120.68
2022-12-24T19:48:52.660Z,78.63
2022-12-24T19:51:20.532Z,35.22
2022-12-24T19:53:49.017Z,40.47
2022-12-24T19:56:18.276Z,39.33
2022-12-24T19:58:46.100Z,111.72
2022-12-24T20:01:16.547Z,95.75
2022-12-24T20:03:45.578Z,56.65
2022-12-24T20:06:14.353Z,35.50
2022-12-24T20:08:42.412Z,37.83
2022-12-24T20:11:12.562Z,38.10
2022-12-24T20:13:41.688Z,37.30
2022-12-24T20:16:21.091Z,57.28
2022-12-24T20:18:56.968Z,56.45
2022-12-24T20:21:25.010Z,37.97
2022-12-24T20:23:52.827Z,48.50
2022-12-24T20:26:22.935Z,64.20
2022-12-24T20:28:50.592Z,46.70
2022-12-24T20:31:22.457Z,40.83
2022-12-24T20:33:50.695Z,43.05
2022-12-24T20:36:19.380Z,42.08
2022-12-24T20:38:48.411Z,34.42
2022-12-24T20:41:17.401Z,36.40
2022-12-24T20:43:48.649Z,41.65
2022-12-24T20:46:18.040Z,57.42
2022-12-24T20:48:45.550Z,43.15
2022-12-24T20:51:24.805Z,44.55
2022-12-24T20:53:55.634Z,45.63
2022-12-24T20:56:23.189Z,47.95
2022-12-24T20:58:51.167Z,47.55
2022-12-24T21:01:21.211Z,41.17
2022-12-24T21:03:48.573Z,37.53
2022-12-24T21:06:17.878Z,38.03
2022-12-24T21:08:47.901Z,41.35
2022-12-24T21:11:33.427Z,47.53
2022-12-24T21:14:03.795Z,44.80
2022-12-24T21:16:32.767Z,39.70
2022-12-24T21:19:00.593Z,46.53
2022-12-24T21:21:27.875Z,40.45
2022-12-24T21:23:55.135Z,42.83
2022-12-24T21:26:22.127Z,42.88
2022-12-24T21:28:50.632Z,48.95
2022-12-24T21:31:18.054Z,46.45
2022-12-24T21:33:45.972Z,48.00
2022-12-24T21:36:14.185Z,41.63
2022-12-24T21:38:42.618Z,39.75
2022-12-24T21:41:15.699Z,51.92
2022-12-24T21:43:43.658Z,43.08
2022-12-24T21:46:18.607Z,53.47
2022-12-24T21:49:05.037Z,40.80
2022-12-24T21:51:32.172Z,47.25
2022-12-24T21:54:18.476Z,54.25
2022-12-24T21:57:04.538Z,48.75
2022-12-24T21:59:32.590Z,51.13
2022-12-24T22:01:59.929Z,55.40
2022-12-24T22:04:28.111Z,57.35
2022-12-24T22:07:13.650Z,59.97
2022-12-24T22:09:59.674Z,66.05
2022-12-24T22:12:31.831Z,55.45
2022-12-24T22:14:59.605Z,58.88
2022-12-24T22:17:28.168Z,51.08
2022-12-24T22:19:55.756Z,43.85
2022-12-24T22:22:23.564Z,52.20
2022-12-24T22:24:51.256Z,57.80
2022-12-24T22:27:18.364Z,68.70
2022-12-24T22:29:46.650Z,50.25
2022-12-24T22:32:14.185Z,60.03
2022-12-24T22:34:41.565Z,61.15
2022-12-24T22:37:09.141Z,65.18
2022-12-24T22:39:36.795Z,66.38
2022-12-24T22:42:03.939Z,71.30
2022-12-24T22:44:31.262Z,82.22
2022-12-24T22:46:58.293Z,69.15
2022-12-24T22:49:25.891Z,74.97
2022-12-24T22:51:52.888Z,65.90
2022-12-24T22:54:20.134Z,58.53
2022-12-24T22:56:48.448Z,58.47
2022-12-24T22:59:16.251Z,57.55
2022-12-24T23:01:45.328Z,57.40
2022-12-24T23:04:14.173Z,55.58
2022-12-24T23:06:41.687Z,58.08
2022-12-24T23:09:12.699Z,53.88
2022-12-24T23:11:40.935Z,78.20
2022-12-24T23:14:36.964Z,76.60
2022-12-24T23:17:04.727Z,65.93
2022-12-24T23:19:33.684Z,60.70
2022-12-24T23:22:02.280Z,58.35
2022-12-24T23:24:30.161Z,55.60
2022-12-24T23:26:58.420Z,56.20
2022-12-24T23:29:26.185Z,55.75
2022-12-24T23:31:53.160Z,48.03
2022-12-24T23:34:20.768Z,49.63
2022-12-24T23:36:48.201Z,55.53
2022-12-24T23:39:15.882Z,52.90
2022-12-24T23:41:42.927Z,63.67
2022-12-24T23:44:10.617Z,56.63
2022-12-24T23:46:38.094Z,51.85
2022-12-24T23:49:06.883Z,48.53
2022-12-24T23:51:33.935Z,45.10
2022-12-24T23:54:01.223Z,56.15
2022-12-24T23:56:29.382Z,39.75
2022-12-24T23:58:57.014Z,54.03
